Time;durP1;ratioP1;P1;durP2;ratioP2;P2;SDS_P1;SDS_P2;PMS_P1;PMS_P2;Temp;Humidity;BMP_temperature;BMP_pressure;BME280_temperature;BME280_humidity;BME280_pressure;Samples;Min_cycle;Max_cycle;Signal;HPM_P1;HPM_P2
2023/08/04 00:00:12;;;;;;;11.50;4.18;;;16.10;99.90;;;;;;5046006;28;20931;-70
2023/08/04 00:02:38;;;;;;;9.70;3.75;;;16.10;99.90;;;;;;5029561;28;20094;-70
2023/08/04 00:05:04;;;;;;;8.45;3.55;;;16.10;99.90;;;;;;5017592;28;20042;-70
2023/08/04 00:07:31;;;;;;;11.98;4.05;;;16.10;99.90;;;;;;5009949;28;20571;-70
2023/08/04 00:09:56;;;;;;;8.50;3.65;;;16.10;99.90;;;;;;5017650;28;20174;-70
2023/08/04 00:12:23;;;;;;;8.40;3.67;;;16.10;99.90;;;;;;5030057;28;20123;-70
2023/08/04 00:14:49;;;;;;;9.50;3.60;;;16.10;99.90;;;;;;5064663;28;20069;-70
2023/08/04 00:17:15;;;;;;;11.18;4.10;;;16.10;99.90;;;;;;5036648;28;20136;-70
2023/08/04 00:19:41;;;;;;;8.13;3.47;;;16.10;99.90;;;;;;5039204;28;20037;-70
2023/08/04 00:22:07;;;;;;;9.70;3.50;;;16.10;99.90;;;;;;5031466;28;20495;-70
2023/08/04 00:24:33;;;;;;;6.90;3.83;;;16.00;99.90;;;;;;5045277;28;20116;-70
2023/08/04 00:27:00;;;;;;;8.15;3.40;;;16.00;99.90;;;;;;5029254;28;20036;-70
2023/08/04 00:29:25;;;;;;;9.90;3.72;;;16.00;99.90;;;;;;5023384;28;20064;-70
2023/08/04 00:31:51;;;;;;;6.28;3.08;;;16.00;99.90;;;;;;5042422;28;20072;-70
2023/08/04 00:34:17;;;;;;;8.57;3.55;;;16.00;99.90;;;;;;5024230;28;20846;-70
2023/08/04 00:36:44;;;;;;;9.48;3.80;;;15.90;99.90;;;;;;5034813;28;20768;-70
2023/08/04 00:39:10;;;;;;;9.73;3.92;;;16.00;99.90;;;;;;5007265;28;20042;-70
2023/08/04 00:41:36;;;;;;;8.60;3.42;;;15.90;99.90;;;;;;5025139;28;20037;-70
2023/08/04 00:44:02;;;;;;;7.03;3.45;;;15.80;99.90;;;;;;5026859;28;20659;-70
2023/08/04 00:46:29;;;;;;;9.52;3.60;;;15.80;99.90;;;;;;5028629;28;20030;-70
2023/08/04 00:48:56;;;;;;;8.73;3.83;;;15.80;99.90;;;;;;5025213;28;20453;-70
2023/08/04 00:51:22;;;;;;;8.25;3.65;;;15.80;99.90;;;;;;5029849;28;20550;-70
2023/08/04 00:53:48;;;;;;;7.85;3.90;;;15.70;99.90;;;;;;5016063;28;20877;-70
2023/08/04 00:56:15;;;;;;;8.68;3.75;;;15.70;99.90;;;;;;5013462;28;20052;-70
2023/08/04 00:58:40;;;;;;;8.70;3.60;;;15.60;99.90;;;;;;5015339;28;20549;-70
2023/08/04 01:01:06;;;;;;;8.60;4.00;;;15.60;99.90;;;;;;5036098;28;20037;-70
2023/08/04 01:03:32;;;;;;;9.60;3.50;;;15.60;99.90;;;;;;5035958;28;20037;-70
2023/08/04 01:06:20;;;;;;;7.30;3.70;;;15.50;99.90;;;;;;5025599;28;20046;-70
2023/08/04 01:08:57;;;;;;;8.30;3.70;;;15.50;99.90;;;;;;5015569;28;20128;-70
2023/08/04 01:11:29;;;;;;;7.53;3.80;;;15.40;99.90;;;;;;5036200;28;20037;-70
2023/08/04 01:13:54;;;;;;;;;;;15.40;99.90;;;;;;5007049;28;20049;-70
2023/08/04 01:16:20;;;;;;;9.20;3.88;;;15.30;99.90;;;;;;5031283;28;19924;-70
2023/08/04 01:18:46;;;;;;;10.10;4.70;;;15.20;99.90;;;;;;5016406;28;20095;-70
2023/08/04 01:21:11;;;;;;;11.40;4.22;;;15.20;99.90;;;;;;5045532;28;20087;-70
2023/08/04 01:23:37;;;;;;;13.30;4.55;;;15.10;99.90;;;;;;5039683;28;20084;-70
2023/08/04 01:26:06;;;;;;;10.60;4.50;;;15.10;99.90;;;;;;5019787;28;20047;-70
2023/08/04 01:28:33;;;;;;;10.00;4.63;;;15.00;99.90;;;;;;5009019;28;20502;-70
2023/08/04 01:31:00;;;;;;;9.68;4.70;;;15.00;99.90;;;;;;5005801;28;20705;-70
2023/08/04 01:33:28;;;;;;;11.25;4.47;;;15.00;99.90;;;;;;5032353;28;20052;-70
2023/08/04 01:35:53;;;;;;;7.47;4.85;;;15.00;99.90;;;;;;5040637;28;20534;-70
2023/08/04 01:38:19;;;;;;;9.48;5.30;;;14.90;99.90;;;;;;5023000;28;20106;-70
2023/08/04 01:40:45;;;;;;;7.30;4.85;;;14.80;99.90;;;;;;5025677;28;20155;-70
2023/08/04 01:43:10;;;;;;;8.38;4.50;;;14.70;99.90;;;;;;5032953;28;20045;-70
2023/08/04 01:45:36;;;;;;;11.80;4.90;;;14.70;99.90;;;;;;5041748;28;20045;-70
2023/08/04 01:48:02;;;;;;;9.30;4.90;;;14.60;99.90;;;;;;5040257;28;20491;-70
2023/08/04 01:50:27;;;;;;;9.80;5.30;;;14.60;99.90;;;;;;5014220;28;20400;-70
2023/08/04 01:52:54;;;;;;;11.02;4.70;;;14.50;99.90;;;;;;5035698;28;20036;-70
2023/08/04 01:55:19;;;;;;;10.75;4.93;;;14.50;99.90;;;;;;5026780;28;20049;-70
2023/08/04 01:57:45;;;;;;;12.75;4.53;;;14.40;99.90;;;;;;5019438;28;20440;-70
2023/08/04 02:00:12;;;;;;;10.02;4.60;;;14.40;99.90;;;;;;5029299;28;20974;-70
2023/08/04 02:02:38;;;;;;;15.15;4.90;;;14.30;99.90;;;;;;5026581;28;20049;-70
2023/08/04 02:05:04;;;;;;;8.20;4.20;;;14.30;99.90;;;;;;5022748;28;20042;-70
2023/08/04 02:07:29;;;;;;;9.52;4.60;;;14.30;99.90;;;;;;5032998;28;20087;-70
2023/08/04 02:09:55;;;;;;;10.40;4.00;;;14.30;99.90;;;;;;5035375;28;20485;-70
2023/08/04 02:12:20;;;;;;;12.75;4.30;;;14.30;99.90;;;;;;5044735;28;20119;-70
2023/08/04 02:14:46;;;;;;;8.38;3.78;;;14.20;99.90;;;;;;5030513;28;20415;-70
2023/08/04 02:17:12;;;;;;;9.73;4.00;;;14.20;99.90;;;;;;5000395;28;20045;-70
2023/08/04 02:19:38;;;;;;;8.00;3.95;;;14.30;99.90;;;;;;5023273;28;20147;-70
2023/08/04 02:22:04;;;;;;;9.55;4.10;;;14.20;99.90;;;;;;5033784;28;20407;-70
2023/08/04 02:24:29;;;;;;;13.15;4.25;;;14.20;99.90;;;;;;5042157;28;20479;-70
2023/08/04 02:26:55;;;;;;;8.38;4.40;;;14.10;99.90;;;;;;5035040;28;20087;-70
2023/08/04 02:29:21;;;;;;;7.30;4.63;;;14.10;99.90;;;;;;5018175;28;20077;-70
2023/08/04 02:31:46;;;;;;;9.52;4.55;;;14.10;99.90;;;;;;5037107;28;20076;-70
2023/08/04 02:34:12;;;;;;;11.65;4.38;;;14.10;99.90;;;;;;5035209;28;20048;-70
2023/08/04 02:36:38;;;;;;;10.65;4.65;;;14.10;99.90;;;;;;5025191;28;20056;-70
2023/08/04 02:39:03;;;;;;;9.82;4.43;;;14.00;99.90;;;;;;5023724;28;20040;-70
2023/08/04 02:41:29;;;;;;;9.65;4.22;;;14.00;99.90;;;;;;5026400;28;20040;-70
2023/08/04 02:43:54;;;;;;;9.38;4.50;;;13.90;99.90;;;;;;5030714;28;20132;-70
2023/08/04 02:46:22;;;;;;;7.47;4.00;;;13.80;99.90;;;;;;5031549;28;20037;-70
2023/08/04 02:48:48;;;;;;;11.07;4.57;;;13.70;99.90;;;;;;5041895;28;20498;-70
2023/08/04 02:51:14;;;;;;;13.00;3.92;;;13.80;99.90;;;;;;5017478;28;20033;-70
2023/08/04 02:53:45;;;;;;;6.93;3.97;;;13.80;99.90;;;;;;5031089;28;20516;-70
2023/08/04 02:56:13;;;;;;;7.32;4.07;;;13.80;99.90;;;;;;5013532;28;20082;-70
2023/08/04 02:58:40;;;;;;;9.52;4.50;;;13.80;99.90;;;;;;5029939;28;20543;-70
2023/08/04 03:01:06;;;;;;;9.10;4.72;;;13.90;99.90;;;;;;5025338;28;20153;-70
2023/08/04 03:03:32;;;;;;;11.57;4.57;;;14.00;99.90;;;;;;5006065;28;20084;-70
2023/08/04 03:05:59;;;;;;;15.15;4.80;;;14.00;99.90;;;;;;5015225;28;20482;-70
2023/08/04 03:08:25;;;;;;;10.82;4.75;;;14.00;99.90;;;;;;5042046;28;20040;-70
2023/08/04 03:10:51;;;;;;;8.05;4.35;;;14.10;99.90;;;;;;5022776;28;20103;-70
2023/08/04 03:13:16;;;;;;;8.05;4.68;;;14.10;99.90;;;;;;5009754;28;20050;-70
2023/08/04 03:15:42;;;;;;;7.80;4.38;;;14.10;99.90;;;;;;5013510;28;20120;-70
2023/08/04 03:18:08;;;;;;;9.07;4.85;;;14.10;99.90;;;;;;5012208;28;20040;-70
2023/08/04 03:20:39;;;;;;;7.25;4.63;;;14.20;99.90;;;;;;5009755;28;20125;-70
2023/08/04 03:23:06;;;;;;;10.27;4.80;;;14.20;99.90;;;;;;5031409;28;20095;-70
2023/08/04 03:25:33;;;;;;;8.35;5.40;;;14.20;99.90;;;;;;5024975;28;20044;-70
2023/08/04 03:27:59;;;;;;;12.32;5.28;;;14.20;99.90;;;;;;5024186;28;20025;-70
2023/08/04 03:30:25;;;;;;;10.18;5.88;;;14.30;99.90;;;;;;5023389;28;20037;-70
2023/08/04 03:32:50;;;;;;;12.32;5.50;;;14.30;99.90;;;;;;5033294;28;20040;-70
2023/08/04 03:35:16;;;;;;;10.23;5.60;;;14.40;99.90;;;;;;5023300;28;20034;-71
2023/08/04 03:37:41;;;;;;;10.10;5.78;;;14.40;99.90;;;;;;5020669;28;20099;-70
2023/08/04 03:40:08;;;;;;;11.20;5.82;;;14.40;99.90;;;;;;5035066;28;20033;-70
2023/08/04 03:42:38;;;;;;;11.95;6.15;;;14.50;99.90;;;;;;5005068;28;20042;-70
2023/08/04 03:45:05;;;;;;;12.35;6.00;;;14.40;99.90;;;;;;5005076;28;20156;-70
2023/08/04 03:47:31;;;;;;;16.25;6.15;;;14.50;99.90;;;;;;5028567;28;20099;-70
2023/08/04 03:49:56;;;;;;;8.85;5.63;;;14.50;99.90;;;;;;5021569;28;20037;-70
2023/08/04 03:52:22;;;;;;;10.25;6.00;;;14.50;99.90;;;;;;5021666;28;20120;-71
2023/08/04 03:54:48;;;;;;;13.65;6.45;;;14.50;99.90;;;;;;5020879;28;20236;-71
2023/08/04 03:57:14;;;;;;;12.77;6.18;;;14.50;99.90;;;;;;5042184;28;20171;-71
2023/08/04 03:59:39;;;;;;;14.70;6.32;;;14.50;99.90;;;;;;5016019;28;20060;-70
2023/08/04 04:02:05;;;;;;;12.23;6.13;;;14.60;99.90;;;;;;5020853;28;20474;-71
2023/08/04 04:04:31;;;;;;;10.60;6.28;;;14.60;99.90;;;;;;5019351;28;20128;-70
2023/08/04 04:06:56;;;;;;;12.07;5.88;;;14.60;99.90;;;;;;5034464;28;20029;-70
2023/08/04 04:09:22;;;;;;;12.30;5.97;;;14.60;99.90;;;;;;5031690;28;20564;-71
2023/08/04 04:11:48;;;;;;;9.30;5.13;;;14.70;99.90;;;;;;5019363;28;20045;-71
2023/08/04 04:14:13;;;;;;;14.23;5.88;;;14.70;99.90;;;;;;5046467;28;20132;-70
2023/08/04 04:16:39;;;;;;;11.02;5.50;;;14.70;99.90;;;;;;5043042;28;20044;-71
2023/08/04 04:19:04;;;;;;;8.50;5.50;;;14.70;99.90;;;;;;5023616;28;20045;-71
2023/08/04 04:21:30;;;;;;;13.02;5.70;;;14.70;99.90;;;;;;5037681;28;20037;-71
2023/08/04 04:23:56;;;;;;;12.25;5.53;;;14.70;99.90;;;;;;5019906;28;20139;-70
2023/08/04 04:26:21;;;;;;;13.02;5.38;;;14.80;99.90;;;;;;5029088;28;20054;-70
2023/08/04 04:28:47;;;;;;;9.07;5.32;;;14.80;99.90;;;;;;5036574;28;20049;-70
2023/08/04 04:31:12;;;;;;;7.53;4.75;;;14.80;99.90;;;;;;5022189;28;20091;-71
2023/08/04 04:33:38;;;;;;;7.03;5.20;;;14.80;99.90;;;;;;5043950;28;20058;-70
2023/08/04 04:36:04;;;;;;;9.98;4.80;;;14.90;99.90;;;;;;5017551;28;20029;-70
2023/08/04 04:38:29;;;;;;;10.50;4.75;;;14.90;99.90;;;;;;5016968;28;20041;-70
2023/08/04 04:40:56;;;;;;;10.15;4.47;;;14.90;99.90;;;;;;5035318;28;20052;-71
2023/08/04 04:43:22;;;;;;;7.78;4.80;;;14.90;99.90;;;;;;5021849;28;20206;-70
2023/08/04 04:45:48;;;;;;;8.45;4.68;;;14.90;99.90;;;;;;5034858;28;20543;-70
2023/08/04 04:48:14;;;;;;;11.10;5.20;;;15.00;99.90;;;;;;5007196;28;20045;-71
2023/08/04 04:50:40;;;;;;;9.00;4.75;;;15.00;99.90;;;;;;4995381;28;20038;-70
2023/08/04 04:53:05;;;;;;;8.10;5.00;;;15.00;99.90;;;;;;5017808;28;20099;-69
2023/08/04 04:55:31;;;;;;;9.75;5.05;;;15.00;99.90;;;;;;5034538;28;20068;-70
2023/08/04 04:57:56;;;;;;;10.95;4.65;;;15.00;99.90;;;;;;5028231;28;20041;-70
2023/08/04 05:00:22;;;;;;;10.15;4.57;;;15.00;99.90;;;;;;5022499;28;20033;-70
2023/08/04 05:02:48;;;;;;;11.40;4.72;;;15.10;99.90;;;;;;5018685;28;20102;-70
2023/08/04 05:05:13;;;;;;;10.63;4.55;;;15.10;99.90;;;;;;5037282;28;20036;-70
2023/08/04 05:07:39;;;;;;;7.30;4.78;;;15.20;99.90;;;;;;5023640;28;20075;-69
2023/08/04 05:10:05;;;;;;;9.52;4.57;;;15.20;99.90;;;;;;5026630;28;20049;-70
2023/08/04 05:12:30;;;;;;;10.63;4.70;;;15.20;99.90;;;;;;5018998;28;20033;-70
2023/08/04 05:14:56;;;;;;;11.13;4.60;;;15.20;99.90;;;;;;5028320;28;20036;-68
2023/08/04 05:17:21;;;;;;;11.07;4.32;;;15.30;99.90;;;;;;5020435;28;20041;-70
2023/08/04 05:19:47;;;;;;;9.10;4.03;;;15.30;99.90;;;;;;5017333;28;20606;-70
2023/08/04 05:22:13;;;;;;;8.52;3.88;;;15.30;99.90;;;;;;5014091;28;20051;-70
2023/08/04 05:24:38;;;;;;;8.70;4.00;;;15.40;99.90;;;;;;5026740;28;20049;-70
2023/08/04 05:27:04;;;;;;;6.10;3.65;;;15.40;99.90;;;;;;5021493;28;20531;-70
2023/08/04 05:29:30;;;;;;;7.82;3.58;;;15.40;99.90;;;;;;5014964;28;20124;-70
2023/08/04 05:31:56;;;;;;;6.68;3.90;;;15.50;99.90;;;;;;5027551;28;20042;-70
2023/08/04 05:34:21;;;;;;;8.05;3.67;;;15.50;99.90;;;;;;5027419;28;20064;-70
2023/08/04 05:36:47;;;;;;;7.43;3.63;;;15.50;99.90;;;;;;5032789;28;20127;-70
2023/08/04 05:39:12;;;;;;;7.72;3.97;;;15.60;99.90;;;;;;5042589;28;20025;-69
2023/08/04 05:41:38;;;;;;;11.15;3.88;;;15.60;99.90;;;;;;5022100;28;20471;-71
2023/08/04 05:44:04;;;;;;;6.22;3.50;;;15.70;99.90;;;;;;5025298;28;20091;-71
2023/08/04 05:46:29;;;;;;;6.95;3.67;;;15.70;99.90;;;;;;5009087;28;20069;-69
2023/08/04 05:48:55;;;;;;;5.53;3.22;;;15.80;99.90;;;;;;5020526;28;20519;-69
2023/08/04 05:51:20;;;;;;;6.90;3.47;;;15.80;99.90;;;;;;5022903;28;20159;-70
2023/08/04 05:53:46;;;;;;;8.80;3.22;;;15.80;99.90;;;;;;5010132;28;20056;-70
2023/08/04 05:56:12;;;;;;;5.45;3.10;;;15.90;99.90;;;;;;5022942;28;20033;-70
2023/08/04 05:58:38;;;;;;;5.93;2.83;;;16.00;99.90;;;;;;5028230;28;20059;-70
2023/08/04 06:01:03;;;;;;;7.85;3.10;;;16.10;99.90;;;;;;5027185;28;20321;-70
2023/08/04 06:03:29;;;;;;;4.90;2.85;;;16.20;99.90;;;;;;5022331;28;20051;-70
2023/08/04 06:05:54;;;;;;;5.60;3.05;;;16.20;99.90;;;;;;5015333;28;20124;-70
2023/08/04 06:08:20;;;;;;;6.20;2.97;;;16.30;99.90;;;;;;5008981;28;20179;-70
2023/08/04 06:10:46;;;;;;;8.25;2.95;;;16.40;99.90;;;;;;5021001;28;20432;-71
2023/08/04 06:13:11;;;;;;;5.10;2.60;;;16.40;99.90;;;;;;5015220;28;20045;-70
2023/08/04 06:15:37;;;;;;;6.25;2.70;;;16.50;99.90;;;;;;5014275;28;20377;-70
2023/08/04 06:18:02;;;;;;;5.47;2.78;;;16.60;99.90;;;;;;5017394;28;20458;-70
2023/08/04 06:20:28;;;;;;;4.80;2.80;;;16.70;99.90;;;;;;5024127;28;20163;-70
2023/08/04 06:22:54;;;;;;;6.50;2.50;;;16.70;99.90;;;;;;5033467;28;20030;-69
2023/08/04 06:25:19;;;;;;;6.40;2.97;;;16.80;99.90;;;;;;5015154;28;20051;-71
2023/08/04 06:27:45;;;;;;;5.82;2.83;;;16.80;99.90;;;;;;5008793;28;20041;-70
2023/08/04 06:30:11;;;;;;;6.63;2.67;;;16.80;99.90;;;;;;5036508;28;20438;-70
2023/08/04 06:32:36;;;;;;;3.97;2.50;;;16.80;99.90;;;;;;5008246;28;20052;-70
2023/08/04 06:35:02;;;;;;;6.65;2.90;;;16.90;99.90;;;;;;5020928;28;20052;-70
2023/08/04 06:37:28;;;;;;;5.22;2.53;;;17.00;99.90;;;;;;5031955;28;20033;-70
2023/08/04 06:39:53;;;;;;;6.47;2.60;;;17.10;99.90;;;;;;5014371;28;20045;-70
2023/08/04 06:42:19;;;;;;;4.50;2.67;;;17.20;99.90;;;;;;5048213;28;20056;-70
2023/08/04 06:44:45;;;;;;;3.90;2.20;;;17.30;99.90;;;;;;5027203;28;20049;-70
2023/08/04 06:47:12;;;;;;;3.15;1.80;;;17.40;99.90;;;;;;5027268;28;20851;-69
2023/08/04 06:49:38;;;;;;;4.30;1.80;;;17.40;99.90;;;;;;5026483;28;20079;-70
2023/08/04 06:52:04;;;;;;;2.95;1.70;;;17.60;99.90;;;;;;5032208;28;20076;-70
2023/08/04 06:54:29;;;;;;;4.13;1.77;;;17.60;99.90;;;;;;5009949;28;20041;-70
2023/08/04 06:56:55;;;;;;;3.20;1.80;;;17.60;99.90;;;;;;5027551;28;20163;-70
2023/08/04 06:59:21;;;;;;;2.45;1.70;;;17.60;99.90;;;;;;5010073;28;20041;-70
2023/08/04 07:01:46;;;;;;;6.28;1.92;;;17.60;99.90;;;;;;5008603;28;20048;-70
2023/08/04 07:04:12;;;;;;;2.20;1.73;;;17.70;99.90;;;;;;5011773;28;20637;-70
2023/08/04 07:06:38;;;;;;;4.07;1.75;;;17.70;99.90;;;;;;5022746;28;20049;-70
2023/08/04 07:09:03;;;;;;;2.05;1.25;;;17.80;99.90;;;;;;5012270;28;20049;-70
2023/08/04 07:11:29;;;;;;;2.20;1.20;;;17.80;99.90;;;;;;5011914;28;20049;-70
2023/08/04 07:13:55;;;;;;;2.03;1.13;;;17.80;99.90;;;;;;5036697;28;20032;-70
2023/08/04 07:16:21;;;;;;;3.67;1.45;;;17.90;99.90;;;;;;5020311;28;20468;-70
2023/08/04 07:18:46;;;;;;;2.47;1.35;;;17.90;99.90;;;;;;5032665;28;20041;-70
2023/08/04 07:21:14;;;;;;;4.13;1.33;;;17.90;99.90;;;;;;5020503;28;20037;-70
2023/08/04 07:23:40;;;;;;;2.05;1.13;;;17.90;99.90;;;;;;5033033;28;20059;-71
2023/08/04 07:26:07;;;;;;;3.42;1.52;;;17.90;99.90;;;;;;5013117;28;20076;-69
2023/08/04 07:28:33;;;;;;;4.10;1.48;;;18.00;99.90;;;;;;5006026;28;20045;-69
2023/08/04 07:31:10;;;;;;;3.33;1.52;;;18.00;99.90;;;;;;5003671;28;20059;-71
2023/08/04 07:33:36;;;;;;;2.63;1.35;;;18.10;99.90;;;;;;5033095;28;20495;-71
2023/08/04 07:36:03;;;;;;;2.47;1.40;;;18.10;99.90;;;;;;5019104;28;20055;-70
2023/08/04 07:38:29;;;;;;;4.60;1.42;;;18.20;99.90;;;;;;5035812;28;20113;-70
2023/08/04 07:40:56;;;;;;;2.10;1.30;;;18.20;99.90;;;;;;5021782;28;20048;-70
2023/08/04 07:43:22;;;;;;;3.95;1.42;;;18.30;99.90;;;;;;5036397;28;20480;-71
2023/08/04 07:45:48;;;;;;;2.53;1.90;;;18.40;99.90;;;;;;5030105;28;20049;-68
2023/08/04 07:48:13;;;;;;;4.38;1.70;;;18.40;99.90;;;;;;5018786;28;20052;-70
2023/08/04 07:50:41;;;;;;;2.10;1.40;;;18.50;99.90;;;;;;5033590;28;20045;-70
2023/08/04 07:53:06;;;;;;;3.13;1.33;;;18.60;99.90;;;;;;5044360;28;20130;-70
2023/08/04 07:55:36;;;;;;;6.25;3.80;;;18.60;99.90;;;;;;5016022;28;20124;-71
2023/08/04 07:58:06;;;;;;;4.13;1.70;;;18.70;99.90;;;;;;5040558;28;20041;-70
2023/08/04 08:00:31;;;;;;;2.22;1.45;;;18.70;99.90;;;;;;5043030;28;20051;-70
2023/08/04 08:02:57;;;;;;;2.80;1.60;;;18.70;99.90;;;;;;5041375;28;20029;-70
2023/08/04 08:05:23;;;;;;;2.72;1.90;;;18.70;99.90;;;;;;5035291;28;20040;-70
2023/08/04 08:07:49;;;;;;;5.40;1.60;;;18.70;99.90;;;;;;5030005;28;20487;-70
2023/08/04 08:10:15;;;;;;;4.32;1.90;;;18.70;99.90;;;;;;5029060;28;20372;-70
2023/08/04 08:12:40;;;;;;;2.05;1.60;;;18.70;99.90;;;;;;5025907;28;20047;-70
2023/08/04 08:15:07;;;;;;;3.28;1.77;;;18.80;99.90;;;;;;5031773;28;20606;-70
2023/08/04 08:17:32;;;;;;;6.05;1.92;;;18.90;99.90;;;;;;5010354;28;20124;-70
2023/08/04 08:19:58;;;;;;;3.97;1.60;;;19.00;99.90;;;;;;5029999;28;20029;-70
2023/08/04 08:22:24;;;;;;;5.22;1.75;;;19.00;99.90;;;;;;5040944;28;20434;-70
2023/08/04 08:24:53;;;;;;;3.25;1.80;;;19.00;99.90;;;;;;5017399;28;20048;-70
2023/08/04 08:27:19;;;;;;;3.22;1.67;;;19.00;99.90;;;;;;5019773;28;20049;-70
2023/08/04 08:29:45;;;;;;;2.65;1.90;;;19.00;99.90;;;;;;5023458;28;20051;-70
2023/08/04 08:32:10;;;;;;;3.85;2.00;;;19.00;99.90;;;;;;5033262;28;20033;-71
2023/08/04 08:34:36;;;;;;;3.33;1.92;;;19.00;99.90;;;;;;5007796;28;20511;-71
2023/08/04 08:37:02;;;;;;;3.65;1.98;;;19.20;99.90;;;;;;5006557;28;20044;-70
2023/08/04 08:39:29;;;;;;;2.55;1.65;;;19.20;99.90;;;;;;5024725;28;20048;-70
2023/08/04 08:41:58;;;;;;;3.10;1.75;;;19.30;99.90;;;;;;5020043;28;20043;-71
2023/08/04 08:44:24;;;;;;;3.92;1.92;;;19.30;99.90;;;;;;5042732;28;20049;-71
2023/08/04 08:46:50;;;;;;;3.58;1.75;;;19.30;99.90;;;;;;5033124;28;20049;-71
2023/08/04 08:49:16;;;;;;;5.35;1.90;;;19.20;99.90;;;;;;5043144;28;20502;-71
2023/08/04 08:51:47;;;;;;;3.58;1.90;;;19.40;99.90;;;;;;5026092;28;20045;-71
2023/08/04 08:54:14;;;;;;;2.85;2.00;;;19.40;99.90;;;;;;5032835;28;20042;-71
2023/08/04 08:56:40;;;;;;;4.55;1.80;;;19.40;99.90;;;;;;5006925;28;20045;-71
2023/08/04 08:59:07;;;;;;;3.63;1.88;;;19.50;99.90;;;;;;5024601;28;20048;-70
2023/08/04 09:01:34;;;;;;;3.08;1.73;;;19.50;99.90;;;;;;5023057;28;20083;-70
2023/08/04 09:04:00;;;;;;;4.43;1.67;;;19.60;99.90;;;;;;5039618;28;20502;-70
2023/08/04 09:06:26;;;;;;;2.65;1.90;;;19.50;99.90;;;;;;5036231;28;20041;-70
2023/08/04 09:08:54;;;;;;;4.85;1.80;;;19.50;99.90;;;;;;5032014;28;20044;-70
2023/08/04 09:11:20;;;;;;;3.88;1.85;;;19.50;99.90;;;;;;5036711;28;20041;-71
2023/08/04 09:13:46;;;;;;;3.60;1.90;;;19.60;99.90;;;;;;5009051;28;20049;-70
2023/08/04 09:16:12;;;;;;;5.95;1.90;;;19.60;99.90;;;;;;5032837;28;20040;-71
2023/08/04 09:18:39;;;;;;;3.88;1.80;;;19.60;99.90;;;;;;5023791;28;20157;-70
2023/08/04 09:21:08;;;;;;;2.67;1.88;;;19.70;99.90;;;;;;5013242;28;20430;-70
2023/08/04 09:23:52;;;;;;;4.88;2.00;;;20.10;99.90;;;;;;5018824;28;20041;-70
2023/08/04 09:26:18;;;;;;;4.45;1.83;;;20.20;99.90;;;;;;5014594;28;20049;-70
2023/08/04 09:28:44;;;;;;;5.72;2.10;;;20.60;99.90;;;;;;5015800;28;20049;-70
2023/08/04 09:31:12;;;;;;;4.50;1.90;;;20.70;99.90;;;;;;5014237;28;20051;-71
2023/08/04 09:33:43;;;;;;;2.75;1.80;;;20.70;99.90;;;;;;5015063;28;20068;-70
2023/08/04 09:36:18;;;;;;;3.13;1.67;;;20.60;99.90;;;;;;5027529;28;20033;-71
2023/08/04 09:38:44;;;;;;;1.60;1.30;;;20.30;99.90;;;;;;5020789;28;20037;-71
2023/08/04 09:41:15;;;;;;;2.50;1.30;;;19.40;99.90;;;;;;5029285;28;20117;-70
2023/08/04 09:43:50;;;;;;;2.85;1.20;;;18.80;99.90;;;;;;5026703;28;20044;-70
2023/08/04 09:46:16;;;;;;;3.20;1.40;;;18.20;99.90;;;;;;5036096;28;20057;-70
2023/08/04 09:48:42;;;;;;;2.40;1.38;;;17.80;99.90;;;;;;5018377;28;20063;-70
2023/08/04 09:51:09;;;;;;;3.38;1.35;;;17.70;99.90;;;;;;5024955;23;20550;-71
2023/08/04 09:53:43;;;;;;;2.33;1.77;;;17.70;99.90;;;;;;5016563;28;20411;-69
2023/08/04 09:56:10;;;;;;;3.17;1.80;;;17.70;99.90;;;;;;5035675;28;20170;-71
2023/08/04 09:58:37;;;;;;;2.35;1.50;;;17.80;99.90;;;;;;5033644;28;20042;-71
2023/08/04 10:01:03;;;;;;;2.58;1.42;;;17.90;99.90;;;;;;5003005;28;20056;-71
2023/08/04 10:03:28;;;;;;;2.70;1.70;;;17.90;99.90;;;;;;5032152;28;20136;-71
2023/08/04 10:05:59;;;;;;;3.05;1.67;;;18.00;99.90;;;;;;5018394;28;20044;-70
2023/08/04 10:08:32;;;;;;;3.25;1.63;;;18.20;99.90;;;;;;5040122;28;20844;-71
2023/08/04 10:10:58;;;;;;;4.32;1.75;;;18.50;99.90;;;;;;5036604;28;20055;-71
2023/08/04 10:13:31;;;;;;;4.18;1.58;;;18.80;99.90;;;;;;5036735;28;20292;-70
2023/08/04 10:15:58;;;;;;;3.35;1.75;;;19.10;99.90;;;;;;5007368;28;20037;-71
2023/08/04 10:18:25;;;;;;;3.65;2.00;;;19.40;99.90;;;;;;5019800;28;20041;-70
2023/08/04 10:20:52;;;;;;;4.50;2.47;;;19.50;99.90;;;;;;5036039;28;20037;-71
2023/08/04 10:23:18;;;;;;;3.65;2.10;;;19.60;99.90;;;;;;5044509;28;20047;-70
2023/08/04 10:25:59;;;;;;;4.03;2.30;;;19.60;99.90;;;;;;5019099;28;20044;-70
2023/08/04 10:28:25;;;;;;;3.80;2.20;;;19.60;99.90;;;;;;5018313;28;20103;-70
2023/08/04 10:31:04;;;;;;;5.68;1.98;;;19.50;99.90;;;;;;5042932;28;20049;-70
2023/08/04 10:33:30;;;;;;;3.80;2.17;;;19.30;99.90;;;;;;5015896;28;20057;-71
2023/08/04 10:36:09;;;;;;;4.45;2.40;;;19.40;99.90;;;;;;5020171;28;20118;-70
2023/08/04 10:38:46;;;;;;;6.47;1.92;;;19.50;99.90;;;;;;5017452;28;20607;-70
2023/08/04 10:41:12;;;;;;;4.75;2.10;;;19.80;99.90;;;;;;5030820;28;20184;-70
2023/08/04 10:43:39;;;;;;;5.25;1.90;;;20.10;99.90;;;;;;5015660;28;20045;-71
2023/08/04 10:46:10;;;;;;;3.75;1.65;;;20.30;99.90;;;;;;5033850;28;20423;-70
2023/08/04 10:48:40;;;;;;;4.60;1.90;;;20.30;99.90;;;;;;5020814;28;20495;-70
2023/08/04 10:51:07;;;;;;;5.25;2.20;;;20.40;99.90;;;;;;5036016;28;20131;-69
2023/08/04 10:53:33;;;;;;;5.32;1.90;;;20.50;99.90;;;;;;5042512;28;20490;-71
2023/08/04 10:56:02;;;;;;;3.03;1.70;;;20.70;99.90;;;;;;5012896;28;20033;-71
2023/08/04 10:58:28;;;;;;;2.97;1.90;;;20.70;99.90;;;;;;5007620;28;20043;-70
2023/08/04 11:00:55;;;;;;;3.35;1.95;;;20.80;99.90;;;;;;5040961;28;20037;-70
2023/08/04 11:03:29;;;;;;;4.63;2.15;;;20.90;99.90;;;;;;5016124;28;20112;-70
2023/08/04 11:05:55;;;;;;;5.18;1.98;;;20.60;99.90;;;;;;5037629;28;20045;-70
2023/08/04 11:08:23;;;;;;;4.93;2.10;;;20.40;99.90;;;;;;5041318;28;20040;-71
2023/08/04 11:10:50;;;;;;;4.00;2.28;;;20.10;99.90;;;;;;5009289;28;20593;-70
2023/08/04 11:13:18;;;;;;;4.18;1.90;;;20.00;99.90;;;;;;5026326;28;20048;-70
2023/08/04 11:15:45;;;;;;;2.80;2.00;;;20.00;99.90;;;;;;5028895;28;20052;-70
2023/08/04 11:18:15;;;;;;;3.55;2.00;;;20.00;99.90;;;;;;5032502;28;20095;-70
2023/08/04 11:20:42;;;;;;;4.30;2.00;;;20.20;99.90;;;;;;5031514;28;20037;-70
2023/08/04 11:23:10;;;;;;;3.72;1.80;;;20.30;99.90;;;;;;5043604;28;20049;-70
2023/08/04 11:25:37;;;;;;;2.65;1.88;;;20.40;99.90;;;;;;5026669;28;20052;-70
2023/08/04 11:28:03;;;;;;;3.30;1.70;;;20.60;99.90;;;;;;5035284;28;20478;-71
2023/08/04 11:30:29;;;;;;;2.03;1.67;;;20.70;99.90;;;;;;5016783;28;20037;-71
2023/08/04 11:32:54;;;;;;;4.80;1.50;;;20.70;99.90;;;;;;5038764;28;20033;-71
2023/08/04 11:35:20;;;;;;;1.50;1.10;;;20.70;99.90;;;;;;5018343;28;20043;-71
2023/08/04 11:37:46;;;;;;;4.45;1.65;;;20.90;99.90;;;;;;5024460;28;20098;-71
2023/08/04 11:40:22;;;;;;;3.28;1.70;;;21.10;99.90;;;;;;5039414;28;20382;-71
2023/08/04 11:42:48;;;;;;;3.60;1.80;;;21.40;99.90;;;;;;5039747;28;20041;-71
2023/08/04 11:45:14;;;;;;;4.68;1.63;;;21.50;99.90;;;;;;5037758;28;20056;-71
2023/08/04 11:47:40;;;;;;;3.72;1.90;;;21.70;99.90;;;;;;5022335;28;20414;-71
2023/08/04 11:50:07;;;;;;;2.55;1.63;;;22.00;99.90;;;;;;5005110;28;20052;-71
2023/08/04 11:52:37;;;;;;;3.60;1.73;;;22.10;99.90;;;;;;5037640;28;20045;-71
2023/08/04 11:55:04;;;;;;;4.53;1.70;;;21.90;99.90;;;;;;5023279;28;20049;-70
2023/08/04 11:57:30;;;;;;;2.33;1.52;;;21.20;99.90;;;;;;5020959;28;20496;-71
2023/08/04 12:00:01;;;;;;;3.08;1.90;;;20.30;99.90;;;;;;5018846;28;20040;-71
2023/08/04 12:02:28;;;;;;;2.90;2.08;;;19.60;99.90;;;;;;4994082;28;20049;-68
2023/08/04 12:05:09;;;;;;;3.55;2.10;;;18.80;99.90;;;;;;5023235;28;20516;-71
2023/08/04 12:07:35;;;;;;;4.10;2.35;;;18.30;99.90;;;;;;5019553;28;20433;-70
2023/08/04 12:10:01;;;;;;;5.43;2.20;;;17.90;99.90;;;;;;5035413;28;20055;-71
2023/08/04 12:12:37;;;;;;;5.25;2.22;;;18.00;99.90;;;;;;5043692;28;20048;-71
2023/08/04 12:15:04;;;;;;;4.15;2.30;;;18.00;99.90;;;;;;5028349;28;20042;-70
2023/08/04 12:17:43;;;;;;;7.50;2.53;;;18.10;99.90;;;;;;5012897;28;20483;-71
2023/08/04 12:20:11;;;;;;;4.57;2.63;;;18.30;99.90;;;;;;5018853;28;20041;-69
2023/08/04 12:22:38;;;;;;;7.05;2.80;;;18.60;99.90;;;;;;5032754;28;20051;-70
2023/08/04 12:25:05;;;;;;;9.73;2.90;;;18.90;99.90;;;;;;5024385;28;20045;-71
2023/08/04 12:27:31;;;;;;;5.75;2.80;;;19.20;99.90;;;;;;5042242;28;20459;-71
2023/08/04 12:29:57;;;;;;;6.65;2.35;;;19.60;99.90;;;;;;5046970;28;20091;-71
2023/08/04 12:32:23;;;;;;;3.78;2.10;;;19.70;99.90;;;;;;5041159;28;20045;-71
2023/08/04 12:34:48;;;;;;;3.08;1.77;;;19.60;99.90;;;;;;5037302;28;20049;-71
2023/08/04 12:37:14;;;;;;;2.47;1.70;;;19.40;99.90;;;;;;5021847;28;20040;-71
2023/08/04 12:39:41;;;;;;;4.32;1.90;;;19.30;99.90;;;;;;5041542;28;20087;-71
2023/08/04 12:42:07;;;;;;;2.58;1.80;;;19.30;99.90;;;;;;5033986;28;20038;-71